<?xml version="1.0" encoding="UTF-8" standalone="no" ?>
<gpx xmlns="http://www.topografix.com/GPX/1/1" xmlns:xsi="http://www.w3.org/2001/XMLSchema-instance" xsi:schemaLocation="http://www.topografix.com/GPX/1/1 http://www.topografix.com/GPX/1/1/gpx.xsd" version="1.1" creator="VisuGPX - https://www.visugpx.com">
  <metadata>
    <name>Valzergues Chemin des mines</name>
  </metadata>
  <trk>
    <name><![CDATA[13641656-Valzergues Chemin des mines]]></name>
    <trkseg>
      <trkpt lat="44.50749" lon="2.22194">
        <ele>458</ele>
        <time>2022-02-25T22:10:39Z</time>
      </trkpt>
      <trkpt lat="44.50968" lon="2.22071">
        <ele>458</ele>
        <time>2022-02-25T22:13:48Z</time>
      </trkpt>
      <trkpt lat="44.5111" lon="2.21979">
        <ele>451</ele>
        <time>2022-02-25T22:15:53Z</time>
      </trkpt>
      <trkpt lat="44.51179" lon="2.21852">
        <ele>449</ele>
        <time>2022-02-25T22:17:24Z</time>
      </trkpt>
      <trkpt lat="44.51237" lon="2.21709">
        <ele>435</ele>
        <time>2022-02-25T22:18:58Z</time>
      </trkpt>
      <trkpt lat="44.51263" lon="2.2162">
        <ele>417</ele>
        <time>2022-02-25T22:19:53Z</time>
      </trkpt>
      <trkpt lat="44.51298" lon="2.21595">
        <ele>405</ele>
        <time>2022-02-25T22:20:25Z</time>
      </trkpt>
      <trkpt lat="44.51304" lon="2.2155">
        <ele>397</ele>
        <time>2022-02-25T22:20:51Z</time>
      </trkpt>
      <trkpt lat="44.51291" lon="2.21521">
        <ele>393</ele>
        <time>2022-02-25T22:21:10Z</time>
      </trkpt>
      <trkpt lat="44.51263" lon="2.21537">
        <ele>400</ele>
        <time>2022-02-25T22:21:34Z</time>
      </trkpt>
      <trkpt lat="44.51244" lon="2.21557">
        <ele>406</ele>
        <time>2022-02-25T22:21:54Z</time>
      </trkpt>
      <trkpt lat="44.51252" lon="2.21512">
        <ele>396</ele>
        <time>2022-02-25T22:22:20Z</time>
      </trkpt>
      <trkpt lat="44.51273" lon="2.21458">
        <ele>380</ele>
        <time>2022-02-25T22:22:55Z</time>
      </trkpt>
      <trkpt lat="44.51303" lon="2.21413">
        <ele>366</ele>
        <time>2022-02-25T22:23:30Z</time>
      </trkpt>
      <trkpt lat="44.51353" lon="2.21422">
        <ele>361</ele>
        <time>2022-02-25T22:24:11Z</time>
      </trkpt>
      <trkpt lat="44.51365" lon="2.21465">
        <ele>366</ele>
        <time>2022-02-25T22:24:37Z</time>
      </trkpt>
      <trkpt lat="44.51394" lon="2.21519">
        <ele>360</ele>
        <time>2022-02-25T22:25:16Z</time>
      </trkpt>
      <trkpt lat="44.51433" lon="2.21492">
        <ele>349</ele>
        <time>2022-02-25T22:25:50Z</time>
      </trkpt>
      <trkpt lat="44.51466" lon="2.21479">
        <ele>349</ele>
        <time>2022-02-25T22:26:18Z</time>
      </trkpt>
      <trkpt lat="44.51464" lon="2.21532">
        <ele>347</ele>
        <time>2022-02-25T22:26:48Z</time>
      </trkpt>
      <trkpt lat="44.51442" lon="2.21591">
        <ele>348</ele>
        <time>2022-02-25T22:27:26Z</time>
      </trkpt>
      <trkpt lat="44.51425" lon="2.21669">
        <ele>349</ele>
        <time>2022-02-25T22:28:13Z</time>
      </trkpt>
      <trkpt lat="44.51445" lon="2.21734">
        <ele>350</ele>
        <time>2022-02-25T22:28:53Z</time>
      </trkpt>
      <trkpt lat="44.51487" lon="2.21799">
        <ele>339</ele>
        <time>2022-02-25T22:29:43Z</time>
      </trkpt>
      <trkpt lat="44.51532" lon="2.21865">
        <ele>334</ele>
        <time>2022-02-25T22:30:35Z</time>
      </trkpt>
      <trkpt lat="44.51584" lon="2.21887">
        <ele>332</ele>
        <time>2022-02-25T22:31:19Z</time>
      </trkpt>
      <trkpt lat="44.51629" lon="2.21844">
        <ele>330</ele>
        <time>2022-02-25T22:32:02Z</time>
      </trkpt>
      <trkpt lat="44.5169" lon="2.21804">
        <ele>330</ele>
        <time>2022-02-25T22:32:56Z</time>
      </trkpt>
      <trkpt lat="44.5175" lon="2.21791">
        <ele>322</ele>
        <time>2022-02-25T22:33:45Z</time>
      </trkpt>
      <trkpt lat="44.51801" lon="2.2173">
        <ele>318</ele>
        <time>2022-02-25T22:34:39Z</time>
      </trkpt>
      <trkpt lat="44.5187" lon="2.21732">
        <ele>313</ele>
        <time>2022-02-25T22:35:34Z</time>
      </trkpt>
      <trkpt lat="44.51926" lon="2.21775">
        <ele>310</ele>
        <time>2022-02-25T22:36:25Z</time>
      </trkpt>
      <trkpt lat="44.51985" lon="2.21826">
        <ele>302</ele>
        <time>2022-02-25T22:37:21Z</time>
      </trkpt>
      <trkpt lat="44.52053" lon="2.21853">
        <ele>297</ele>
        <time>2022-02-25T22:38:17Z</time>
      </trkpt>
      <trkpt lat="44.5211" lon="2.21896">
        <ele>291</ele>
        <time>2022-02-25T22:39:09Z</time>
      </trkpt>
      <trkpt lat="44.52168" lon="2.21934">
        <ele>284</ele>
        <time>2022-02-25T22:40:00Z</time>
      </trkpt>
      <trkpt lat="44.5221" lon="2.21914">
        <ele>279</ele>
        <time>2022-02-25T22:40:36Z</time>
      </trkpt>
      <trkpt lat="44.52247" lon="2.21956">
        <ele>276</ele>
        <time>2022-02-25T22:41:14Z</time>
      </trkpt>
      <trkpt lat="44.52272" lon="2.2203">
        <ele>286</ele>
        <time>2022-02-25T22:42:01Z</time>
      </trkpt>
      <trkpt lat="44.52278" lon="2.2212">
        <ele>289</ele>
        <time>2022-02-25T22:42:52Z</time>
      </trkpt>
      <trkpt lat="44.523" lon="2.22187">
        <ele>289</ele>
        <time>2022-02-25T22:43:34Z</time>
      </trkpt>
      <trkpt lat="44.52339" lon="2.22234">
        <ele>287</ele>
        <time>2022-02-25T22:44:15Z</time>
      </trkpt>
      <trkpt lat="44.5238" lon="2.22289">
        <ele>289</ele>
        <time>2022-02-25T22:45:01Z</time>
      </trkpt>
      <trkpt lat="44.52385" lon="2.2236">
        <ele>287</ele>
        <time>2022-02-25T22:45:42Z</time>
      </trkpt>
      <trkpt lat="44.5238" lon="2.2245">
        <ele>292</ele>
        <time>2022-02-25T22:46:33Z</time>
      </trkpt>
      <trkpt lat="44.52359" lon="2.22519">
        <ele>288</ele>
        <time>2022-02-25T22:47:16Z</time>
      </trkpt>
      <trkpt lat="44.52353" lon="2.22585">
        <ele>292</ele>
        <time>2022-02-25T22:47:54Z</time>
      </trkpt>
      <trkpt lat="44.52327" lon="2.22611">
        <ele>285</ele>
        <time>2022-02-25T22:48:20Z</time>
      </trkpt>
      <trkpt lat="44.52298" lon="2.22614">
        <ele>281</ele>
        <time>2022-02-25T22:48:43Z</time>
      </trkpt>
      <trkpt lat="44.52282" lon="2.22598">
        <ele>277</ele>
        <time>2022-02-25T22:48:59Z</time>
      </trkpt>
      <trkpt lat="44.5224" lon="2.22625">
        <ele>274</ele>
        <time>2022-02-25T22:49:36Z</time>
      </trkpt>
      <trkpt lat="44.52214" lon="2.22658">
        <ele>274</ele>
        <time>2022-02-25T22:50:04Z</time>
      </trkpt>
      <trkpt lat="44.52169" lon="2.22677">
        <ele>273</ele>
        <time>2022-02-25T22:50:41Z</time>
      </trkpt>
      <trkpt lat="44.52115" lon="2.22737">
        <ele>281</ele>
        <time>2022-02-25T22:51:36Z</time>
      </trkpt>
      <trkpt lat="44.52054" lon="2.22824">
        <ele>288</ele>
        <time>2022-02-25T22:52:46Z</time>
      </trkpt>
      <trkpt lat="44.51982" lon="2.22919">
        <ele>288</ele>
        <time>2022-02-25T22:54:05Z</time>
      </trkpt>
      <trkpt lat="44.51944" lon="2.23006">
        <ele>293</ele>
        <time>2022-02-25T22:55:03Z</time>
      </trkpt>
      <trkpt lat="44.51905" lon="2.23064">
        <ele>293</ele>
        <time>2022-02-25T22:55:49Z</time>
      </trkpt>
      <trkpt lat="44.51881" lon="2.23179">
        <ele>299</ele>
        <time>2022-02-25T22:56:57Z</time>
      </trkpt>
      <trkpt lat="44.51837" lon="2.23266">
        <ele>299</ele>
        <time>2022-02-25T22:57:58Z</time>
      </trkpt>
      <trkpt lat="44.51778" lon="2.23361">
        <ele>303</ele>
        <time>2022-02-25T22:59:10Z</time>
      </trkpt>
      <trkpt lat="44.51757" lon="2.23401">
        <ele>306</ele>
        <time>2022-02-25T22:59:39Z</time>
      </trkpt>
      <trkpt lat="44.51716" lon="2.23408">
        <ele>299</ele>
        <time>2022-02-25T23:00:12Z</time>
      </trkpt>
      <trkpt lat="44.51659" lon="2.23401">
        <ele>288</ele>
        <time>2022-02-25T23:00:57Z</time>
      </trkpt>
      <trkpt lat="44.51613" lon="2.23432">
        <ele>286</ele>
        <time>2022-02-25T23:01:38Z</time>
      </trkpt>
      <trkpt lat="44.51571" lon="2.23406">
        <ele>286</ele>
        <time>2022-02-25T23:02:15Z</time>
      </trkpt>
      <trkpt lat="44.51531" lon="2.23428">
        <ele>293</ele>
        <time>2022-02-25T23:02:49Z</time>
      </trkpt>
      <trkpt lat="44.51524" lon="2.23401">
        <ele>296</ele>
        <time>2022-02-25T23:03:06Z</time>
      </trkpt>
      <trkpt lat="44.51536" lon="2.23341">
        <ele>297</ele>
        <time>2022-02-25T23:03:41Z</time>
      </trkpt>
      <trkpt lat="44.51523" lon="2.23284">
        <ele>298</ele>
        <time>2022-02-25T23:04:16Z</time>
      </trkpt>
      <trkpt lat="44.5149" lon="2.23257">
        <ele>302</ele>
        <time>2022-02-25T23:04:46Z</time>
      </trkpt>
      <trkpt lat="44.51439" lon="2.23242">
        <ele>307</ele>
        <time>2022-02-25T23:05:28Z</time>
      </trkpt>
      <trkpt lat="44.5138" lon="2.23224">
        <ele>311</ele>
        <time>2022-02-25T23:06:16Z</time>
      </trkpt>
      <trkpt lat="44.5132" lon="2.23204">
        <ele>317</ele>
        <time>2022-02-25T23:07:06Z</time>
      </trkpt>
      <trkpt lat="44.51257" lon="2.2321">
        <ele>323</ele>
        <time>2022-02-25T23:07:56Z</time>
      </trkpt>
      <trkpt lat="44.51213" lon="2.23195">
        <ele>330</ele>
        <time>2022-02-25T23:08:32Z</time>
      </trkpt>
      <trkpt lat="44.51225" lon="2.23163">
        <ele>333</ele>
        <time>2022-02-25T23:08:53Z</time>
      </trkpt>
      <trkpt lat="44.51262" lon="2.23136">
        <ele>336</ele>
        <time>2022-02-25T23:09:27Z</time>
      </trkpt>
      <trkpt lat="44.51303" lon="2.23101">
        <ele>341</ele>
        <time>2022-02-25T23:10:05Z</time>
      </trkpt>
      <trkpt lat="44.51334" lon="2.23064">
        <ele>348</ele>
        <time>2022-02-25T23:10:38Z</time>
      </trkpt>
      <trkpt lat="44.51271" lon="2.2308">
        <ele>352</ele>
        <time>2022-02-25T23:11:29Z</time>
      </trkpt>
      <trkpt lat="44.51289" lon="2.23044">
        <ele>359</ele>
        <time>2022-02-25T23:11:54Z</time>
      </trkpt>
      <trkpt lat="44.51315" lon="2.22988">
        <ele>369</ele>
        <time>2022-02-25T23:12:32Z</time>
      </trkpt>
      <trkpt lat="44.513" lon="2.22992">
        <ele>371</ele>
        <time>2022-02-25T23:12:44Z</time>
      </trkpt>
      <trkpt lat="44.5126" lon="2.22995">
        <ele>377</ele>
        <time>2022-02-25T23:13:16Z</time>
      </trkpt>
      <trkpt lat="44.51219" lon="2.23">
        <ele>378</ele>
        <time>2022-02-25T23:13:49Z</time>
      </trkpt>
      <trkpt lat="44.51172" lon="2.22978">
        <ele>384</ele>
        <time>2022-02-25T23:14:29Z</time>
      </trkpt>
      <trkpt lat="44.51156" lon="2.22951">
        <ele>390</ele>
        <time>2022-02-25T23:14:49Z</time>
      </trkpt>
      <trkpt lat="44.5116" lon="2.22915">
        <ele>397</ele>
        <time>2022-02-25T23:15:10Z</time>
      </trkpt>
      <trkpt lat="44.51166" lon="2.22895">
        <ele>400</ele>
        <time>2022-02-25T23:15:22Z</time>
      </trkpt>
      <trkpt lat="44.51211" lon="2.22885">
        <ele>404</ele>
        <time>2022-02-25T23:15:59Z</time>
      </trkpt>
      <trkpt lat="44.51252" lon="2.22849">
        <ele>411</ele>
        <time>2022-02-25T23:16:37Z</time>
      </trkpt>
      <trkpt lat="44.51257" lon="2.22807">
        <ele>415</ele>
        <time>2022-02-25T23:17:02Z</time>
      </trkpt>
      <trkpt lat="44.5126" lon="2.2276">
        <ele>420</ele>
        <time>2022-02-25T23:17:29Z</time>
      </trkpt>
      <trkpt lat="44.51237" lon="2.22749">
        <ele>425</ele>
        <time>2022-02-25T23:17:48Z</time>
      </trkpt>
      <trkpt lat="44.51198" lon="2.22747">
        <ele>429</ele>
        <time>2022-02-25T23:18:19Z</time>
      </trkpt>
      <trkpt lat="44.51165" lon="2.22715">
        <ele>437</ele>
        <time>2022-02-25T23:18:52Z</time>
      </trkpt>
      <trkpt lat="44.5112" lon="2.22719">
        <ele>440</ele>
        <time>2022-02-25T23:19:28Z</time>
      </trkpt>
      <trkpt lat="44.5107" lon="2.22738">
        <ele>442</ele>
        <time>2022-02-25T23:20:09Z</time>
      </trkpt>
      <trkpt lat="44.51024" lon="2.22748">
        <ele>442</ele>
        <time>2022-02-25T23:20:46Z</time>
      </trkpt>
      <trkpt lat="44.51009" lon="2.22729">
        <ele>444</ele>
        <time>2022-02-25T23:21:03Z</time>
      </trkpt>
      <trkpt lat="44.5101" lon="2.22685">
        <ele>447</ele>
        <time>2022-02-25T23:21:28Z</time>
      </trkpt>
      <trkpt lat="44.51026" lon="2.2263">
        <ele>451</ele>
        <time>2022-02-25T23:22:02Z</time>
      </trkpt>
      <trkpt lat="44.51042" lon="2.22579">
        <ele>454</ele>
        <time>2022-02-25T23:22:33Z</time>
      </trkpt>
      <trkpt lat="44.51042" lon="2.2258">
        <ele>454</ele>
        <time>2022-02-25T23:22:34Z</time>
      </trkpt>
      <trkpt lat="44.51049" lon="2.22557">
        <ele>454</ele>
        <time>2022-02-25T23:22:48Z</time>
      </trkpt>
      <trkpt lat="44.51054" lon="2.22543">
        <ele>454</ele>
        <time>2022-02-25T23:22:57Z</time>
      </trkpt>
      <trkpt lat="44.51042" lon="2.22522">
        <ele>454</ele>
        <time>2022-02-25T23:23:13Z</time>
      </trkpt>
      <trkpt lat="44.51029" lon="2.22494">
        <ele>454</ele>
        <time>2022-02-25T23:23:32Z</time>
      </trkpt>
      <trkpt lat="44.51014" lon="2.22473">
        <ele>453</ele>
        <time>2022-02-25T23:23:49Z</time>
      </trkpt>
      <trkpt lat="44.50997" lon="2.22446">
        <ele>452</ele>
        <time>2022-02-25T23:24:09Z</time>
      </trkpt>
      <trkpt lat="44.5098" lon="2.22419">
        <ele>450</ele>
        <time>2022-02-25T23:24:30Z</time>
      </trkpt>
      <trkpt lat="44.50962" lon="2.22391">
        <ele>448</ele>
        <time>2022-02-25T23:24:51Z</time>
      </trkpt>
      <trkpt lat="44.50947" lon="2.22356">
        <ele>447</ele>
        <time>2022-02-25T23:25:15Z</time>
      </trkpt>
      <trkpt lat="44.50931" lon="2.22322">
        <ele>447</ele>
        <time>2022-02-25T23:25:38Z</time>
      </trkpt>
      <trkpt lat="44.50914" lon="2.223">
        <ele>449</ele>
        <time>2022-02-25T23:25:56Z</time>
      </trkpt>
      <trkpt lat="44.50894" lon="2.22277">
        <ele>449</ele>
        <time>2022-02-25T23:26:17Z</time>
      </trkpt>
      <trkpt lat="44.50873" lon="2.22258">
        <ele>450</ele>
        <time>2022-02-25T23:26:37Z</time>
      </trkpt>
      <trkpt lat="44.50852" lon="2.2224">
        <ele>452</ele>
        <time>2022-02-25T23:26:57Z</time>
      </trkpt>
      <trkpt lat="44.50829" lon="2.22224">
        <ele>454</ele>
        <time>2022-02-25T23:27:17Z</time>
      </trkpt>
      <trkpt lat="44.50798" lon="2.22215">
        <ele>455</ele>
        <time>2022-02-25T23:27:43Z</time>
      </trkpt>
      <trkpt lat="44.50764" lon="2.22205">
        <ele>457</ele>
        <time>2022-02-25T23:28:11Z</time>
      </trkpt>
      <trkpt lat="44.50742" lon="2.22197">
        <ele>458</ele>
        <time>2022-02-25T23:28:29Z</time>
      </trkpt>
    </trkseg>
  </trk>
</gpx>